Time;durP1;ratioP1;P1;durP2;ratioP2;P2;SDS_P1;SDS_P2;PMS_P1;PMS_P2;Temp;Humidity;BMP_temperature;BMP_pressure;BME280_temperature;BME280_humidity;BME280_pressure;Samples;Min_cycle;Max_cycle;Signal;HPM_P1;HPM_P2
2022/06/21 00:00:06;;;;;;;11.75;3.00;;;13.20;99.90;;;;;;5093317;28;20432;-70
2022/06/21 00:02:32;;;;;;;9.98;2.60;;;13.30;99.90;;;;;;5112249;28;20069;-71
2022/06/21 00:04:58;;;;;;;6.38;2.20;;;13.30;99.90;;;;;;5093902;28;20040;-70
2022/06/21 00:07:26;;;;;;;5.85;2.20;;;13.20;99.90;;;;;;5112056;28;20528;-70
2022/06/21 00:09:53;;;;;;;7.32;2.20;;;13.30;99.90;;;;;;5093240;28;20043;-70
2022/06/21 00:12:20;;;;;;;6.28;2.53;;;13.10;99.90;;;;;;5111779;28;20488;-70
2022/06/21 00:14:46;;;;;;;7.55;2.20;;;13.10;99.90;;;;;;5093762;28;20038;-70
2022/06/21 00:17:18;;;;;;;7.03;2.28;;;13.10;99.90;;;;;;5093680;28;20118;-70
2022/06/21 00:19:44;;;;;;;8.82;2.20;;;13.20;99.90;;;;;;5093260;28;20047;-70
2022/06/21 00:22:15;;;;;;;6.95;2.45;;;12.90;99.90;;;;;;5093603;28;20039;-70
2022/06/21 00:24:42;;;;;;;6.43;2.60;;;13.10;99.90;;;;;;5093800;28;20047;-70
2022/06/21 00:27:17;;;;;;;8.77;2.20;;;13.00;99.90;;;;;;5093546;28;20134;-70
2022/06/21 00:29:43;;;;;;;4.70;2.60;;;12.90;99.90;;;;;;5111307;28;20086;-70
2022/06/21 00:32:15;;;;;;;4.65;2.05;;;12.90;99.90;;;;;;5077221;28;20382;-70
2022/06/21 00:34:42;;;;;;;11.00;3.40;;;12.70;99.90;;;;;;5111796;28;20398;-70
2022/06/21 00:37:21;;;;;;;6.78;3.10;;;12.90;99.90;;;;;;5112168;28;20035;-70
2022/06/21 00:39:47;;;;;;;4.53;2.30;;;12.80;99.90;;;;;;5092786;28;20046;-70
2022/06/21 00:42:19;;;;;;;8.25;2.85;;;12.90;99.90;;;;;;5093647;28;20024;-70
2022/06/21 00:45:04;;;;;;;4.15;2.10;;;12.90;99.90;;;;;;5112557;28;20508;-70
2022/06/21 00:47:43;;;;;;;5.40;2.30;;;12.90;99.90;;;;;;5097196;28;20047;-71
2022/06/21 00:50:23;;;;;;;9.43;2.63;;;12.70;99.90;;;;;;5114986;28;20031;-70
2022/06/21 00:53:01;;;;;;;9.27;2.58;;;12.70;99.90;;;;;;5096869;28;20101;-70
2022/06/21 00:55:33;;;;;;;6.43;2.15;;;12.80;99.90;;;;;;5097012;28;20082;-70
2022/06/21 00:57:59;;;;;;;5.60;2.38;;;12.70;99.90;;;;;;5115366;28;20047;-70
2022/06/21 01:00:53;;;;;;;4.55;2.33;;;12.90;99.90;;;;;;5096620;28;20374;-70
2022/06/21 01:03:23;;;;;;;4.78;2.45;;;12.60;99.90;;;;;;5097173;28;20043;-70
2022/06/21 01:05:49;;;;;;;5.32;2.13;;;12.70;99.90;;;;;;5096978;28;20079;-69
2022/06/21 01:08:24;;;;;;;6.25;2.10;;;12.50;99.90;;;;;;5115079;28;20040;-70
2022/06/21 01:11:05;;;;;;;5.70;2.33;;;13.10;99.90;;;;;;5096330;28;20028;-70
2022/06/21 01:13:35;;;;;;;7.93;2.45;;;13.00;99.90;;;;;;5096878;28;20078;-70
2022/06/21 01:16:01;;;;;;;8.45;2.10;;;12.40;99.90;;;;;;5097096;28;20123;-70
2022/06/21 01:18:27;;;;;;;5.80;2.13;;;12.40;99.90;;;;;;5096759;28;20086;-70
2022/06/21 01:20:58;;;;;;;3.63;2.13;;;12.30;99.90;;;;;;5096009;28;20071;-70
2022/06/21 01:23:36;;;;;;;8.45;2.85;;;12.20;99.90;;;;;;5095043;28;20055;-70
2022/06/21 01:26:39;;;;;;;3.10;2.05;;;13.10;99.90;;;;;;5096787;28;20039;-70
2022/06/21 01:29:09;;;;;;;6.97;2.70;;;12.30;99.90;;;;;;5096260;28;20036;-70
2022/06/21 01:31:34;;;;;;;8.43;2.70;;;12.70;99.90;;;;;;5096901;28;20031;-70
2022/06/21 01:34:01;;;;;;;4.68;2.13;;;;;;;;;;5096576;28;20382;-70
2022/06/21 01:36:31;;;;;;;5.45;2.28;;;12.20;99.90;;;;;;5096519;28;20036;-69
2022/06/21 01:39:07;;;;;;;5.40;2.10;;;12.10;99.90;;;;;;5114019;28;20089;-69
2022/06/21 01:41:46;;;;;;;5.22;2.13;;;12.00;99.90;;;;;;5114516;28;20570;-70
2022/06/21 01:44:18;;;;;;;5.32;2.30;;;11.90;99.90;;;;;;5114604;28;20043;-70
2022/06/21 01:46:45;;;;;;;9.05;2.45;;;11.80;99.90;;;;;;5096448;28;20386;-69
2022/06/21 01:49:15;;;;;;;4.25;2.20;;;11.80;99.90;;;;;;5113504;28;20039;-69
2022/06/21 01:51:48;;;;;;;4.88;2.10;;;11.70;99.90;;;;;;5114372;28;20035;-69
2022/06/21 01:54:17;;;;;;;4.50;2.10;;;11.70;99.90;;;;;;5114226;28;20032;-70
2022/06/21 01:56:45;;;;;;;4.90;2.58;;;11.60;99.90;;;;;;5094830;28;20069;-70
2022/06/21 01:59:19;;;;;;;2.90;2.42;;;11.60;99.90;;;;;;5113607;28;20077;-70
2022/06/21 02:01:50;;;;;;;4.45;2.70;;;11.60;99.90;;;;;;5114162;28;20493;-70
2022/06/21 02:04:21;;;;;;;4.90;2.38;;;11.60;99.90;;;;;;5096094;28;20089;-70
2022/06/21 02:06:48;;;;;;;5.72;2.22;;;11.50;99.90;;;;;;5114460;28;20115;-70
2022/06/21 02:09:27;;;;;;;7.82;2.88;;;11.50;99.90;;;;;;5094875;28;20039;-70
2022/06/21 02:12:06;;;;;;;5.50;2.40;;;11.50;99.90;;;;;;5096008;28;20127;-68
2022/06/21 02:14:42;;;;;;;6.07;2.30;;;11.60;99.90;;;;;;5095710;28;20102;-70
2022/06/21 02:17:23;;;;;;;4.90;2.72;;;11.50;99.90;;;;;;5113938;28;20509;-70
2022/06/21 02:20:28;;;;;;;6.53;2.72;;;11.50;99.90;;;;;;5094878;28;20043;-70
2022/06/21 02:22:55;;;;;;;6.70;3.00;;;;;;;;;;5094360;28;20036;-70
2022/06/21 02:25:23;;;;;;;4.40;2.30;;;11.40;99.90;;;;;;5095502;28;20495;-69
2022/06/21 02:27:52;;;;;;;5.30;2.22;;;11.60;99.90;;;;;;5113653;28;20117;-69
2022/06/21 02:30:22;;;;;;;4.53;2.58;;;11.60;99.90;;;;;;5094671;28;20490;-70
2022/06/21 02:32:49;;;;;;;4.82;2.50;;;11.50;99.90;;;;;;5095217;28;20508;-71
2022/06/21 02:35:54;;;;;;;4.07;2.55;;;11.30;99.90;;;;;;5078604;28;20089;-70
2022/06/21 02:38:25;;;;;;;6.93;2.97;;;11.30;99.90;;;;;;5095365;28;20035;-69
2022/06/21 02:40:57;;;;;;;11.55;2.80;;;11.30;99.90;;;;;;5077486;28;20489;-70
2022/06/21 02:43:35;;;;;;;7.50;3.27;;;11.40;99.90;;;;;;5095059;28;20040;-70
2022/06/21 02:46:08;;;;;;;5.57;2.85;;;11.40;99.90;;;;;;5095445;28;20040;-70
2022/06/21 02:48:45;;;;;;;6.00;2.85;;;11.30;99.90;;;;;;5095061;28;20501;-69
2022/06/21 02:51:16;;;;;;;3.78;2.72;;;11.30;99.90;;;;;;5094161;28;20469;-70
2022/06/21 02:53:59;;;;;;;5.88;3.10;;;11.10;99.90;;;;;;5094626;28;20050;-69
2022/06/21 02:56:36;;;;;;;4.60;3.00;;;11.20;99.90;;;;;;5077993;28;20089;-69
2022/06/21 02:59:03;;;;;;;5.45;2.53;;;11.30;99.90;;;;;;5112433;28;20497;-70
2022/06/21 03:01:38;;;;;;;7.35;3.75;;;11.30;99.90;;;;;;5094511;28;20501;-69
2022/06/21 03:04:06;;;;;;;5.03;2.80;;;11.10;99.90;;;;;;5094545;28;20505;-70
2022/06/21 03:06:33;;;;;;;8.60;2.78;;;11.20;99.90;;;;;;5094656;28;20089;-70
2022/06/21 03:09:02;;;;;;;3.35;2.80;;;11.00;99.90;;;;;;5093609;28;20481;-70
2022/06/21 03:11:39;;;;;;;3.00;2.35;;;11.00;99.90;;;;;;5077445;28;20118;-70
2022/06/21 03:14:11;;;;;;;7.55;3.08;;;11.20;99.90;;;;;;5094549;28;20046;-70
2022/06/21 03:16:38;;;;;;;3.95;2.75;;;11.10;99.90;;;;;;5112699;28;20500;-69
2022/06/21 03:19:12;;;;;;;3.97;2.85;;;11.10;99.90;;;;;;5077277;28;20073;-70
2022/06/21 03:21:37;;;;;;;3.63;2.72;;;10.90;99.90;;;;;;5094420;28;20489;-69
2022/06/21 03:24:07;;;;;;;2.80;2.50;;;11.00;99.90;;;;;;5111500;28;20040;-70
2022/06/21 03:26:36;;;;;;;4.53;2.67;;;10.90;99.90;;;;;;5112481;28;20394;-70
2022/06/21 03:29:02;;;;;;;2.83;2.63;;;10.90;99.90;;;;;;5093607;28;20536;-70
2022/06/21 03:31:35;;;;;;;4.68;2.55;;;10.80;99.90;;;;;;5094131;28;20059;-70
2022/06/21 03:34:03;;;;;;;;;;;10.90;99.90;;;;;;5094887;28;20058;-70
2022/06/21 03:36:29;;;;;;;4.38;2.30;;;10.80;99.90;;;;;;5112462;28;19916;-70
2022/06/21 03:39:02;;;;;;;5.55;2.60;;;10.90;99.90;;;;;;5093677;28;20036;-71
2022/06/21 03:41:43;;;;;;;5.53;2.80;;;10.80;99.90;;;;;;5077253;28;20043;-71
2022/06/21 03:44:53;;;;;;;3.65;2.70;;;10.90;99.90;;;;;;5094075;28;20096;-70
2022/06/21 03:47:28;;;;;;;5.70;2.85;;;10.90;99.90;;;;;;5077507;28;20055;-70
2022/06/21 03:49:54;;;;;;;4.40;2.80;;;;;;;;;;5099154;28;20032;-70
2022/06/21 03:52:44;;;;;;;6.35;2.45;;;10.90;99.90;;;;;;5104220;28;20121;-70
2022/06/21 03:55:35;;;;;;;2.80;2.60;;;11.00;99.90;;;;;;5126070;28;20043;-70
2022/06/21 03:58:10;;;;;;;4.45;2.78;;;10.90;99.90;;;;;;5080089;28;20055;-70
2022/06/21 04:00:55;;;;;;;4.05;2.83;;;11.10;99.90;;;;;;5125766;28;20039;-70
2022/06/21 04:03:38;;;;;;;4.32;3.03;;;11.00;99.90;;;;;;5094758;28;20408;-70
2022/06/21 04:06:15;;;;;;;4.57;2.90;;;11.20;99.90;;;;;;5093965;28;20233;-70
2022/06/21 04:08:57;;;;;;;5.10;2.85;;;11.50;99.90;;;;;;5076936;28;20493;-70
2022/06/21 04:11:30;;;;;;;3.00;2.58;;;11.30;99.90;;;;;;5111953;28;20063;-70
2022/06/21 04:14:18;;;;;;;3.58;2.30;;;11.40;99.90;;;;;;5094134;28;20054;-70
2022/06/21 04:16:58;;;;;;;3.90;3.17;;;11.30;99.90;;;;;;5093724;28;20092;-70
2022/06/21 04:19:37;;;;;;;6.80;2.88;;;11.40;99.90;;;;;;5093661;28;20058;-70
2022/06/21 04:22:09;;;;;;;6.25;3.08;;;11.50;99.90;;;;;;5116137;28;20082;-70
2022/06/21 04:24:39;;;;;;;4.15;2.70;;;11.60;99.90;;;;;;5097158;28;20075;-70
2022/06/21 04:27:23;;;;;;;5.40;2.75;;;11.50;99.90;;;;;;5080848;28;20122;-69
2022/06/21 04:30:02;;;;;;;3.85;2.63;;;11.80;99.90;;;;;;5097246;28;20466;-70
2022/06/21 04:32:39;;;;;;;3.97;2.83;;;11.90;99.90;;;;;;5097596;28;20039;-70
2022/06/21 04:35:16;;;;;;;5.15;2.70;;;11.80;99.90;;;;;;5097526;28;20549;-70
2022/06/21 04:38:04;;;;;;;5.60;3.17;;;11.70;99.90;;;;;;5097531;28;20035;-70
2022/06/21 04:40:54;;;;;;;6.55;2.80;;;11.70;99.90;;;;;;5096997;28;20050;-70
2022/06/21 04:43:34;;;;;;;3.08;2.60;;;12.00;99.90;;;;;;5088507;28;20083;-70
2022/06/21 04:46:04;;;;;;;4.00;3.05;;;12.10;99.90;;;;;;5097829;28;20037;-70
2022/06/21 04:48:52;;;;;;;4.18;2.70;;;12.00;99.90;;;;;;5115467;28;20554;-70
2022/06/21 04:51:21;;;;;;;3.55;2.88;;;12.10;99.90;;;;;;5115110;28;20489;-70
2022/06/21 04:54:12;;;;;;;9.27;3.67;;;12.20;99.90;;;;;;5080131;28;20496;-70
2022/06/21 04:56:49;;;;;;;6.45;2.97;;;12.30;99.90;;;;;;5097278;28;20081;-69
2022/06/21 04:59:38;;;;;;;4.38;3.33;;;12.10;99.90;;;;;;5096555;28;20039;-70
2022/06/21 05:02:06;;;;;;;5.15;3.20;;;12.20;99.90;;;;;;5115596;28;20036;-69
2022/06/21 05:04:36;;;;;;;4.03;3.13;;;12.60;99.90;;;;;;5097388;28;20040;-70
2022/06/21 05:07:07;;;;;;;6.60;3.63;;;12.20;99.90;;;;;;5115458;28;20035;-70
2022/06/21 05:09:34;;;;;;;4.22;3.15;;;12.30;99.90;;;;;;5096248;28;20127;-70
2022/06/21 05:12:22;;;;;;;5.68;3.35;;;12.60;99.90;;;;;;5097151;28;20202;-70
2022/06/21 05:14:52;;;;;;;4.00;3.00;;;12.60;99.90;;;;;;5114672;28;20174;-70
2022/06/21 05:17:20;;;;;;;3.92;2.90;;;12.70;99.90;;;;;;5097155;28;20054;-70
2022/06/21 05:19:52;;;;;;;4.97;3.33;;;12.70;99.90;;;;;;5095860;28;20489;-70
2022/06/21 05:22:35;;;;;;;5.40;3.30;;;12.80;99.90;;;;;;5113915;28;20046;-70
2022/06/21 05:25:04;;;;;;;4.40;3.30;;;13.00;99.90;;;;;;5115223;28;20077;-70
2022/06/21 05:27:44;;;;;;;8.13;3.28;;;13.20;99.90;;;;;;5096535;28;20040;-69
2022/06/21 05:30:26;;;;;;;5.88;3.67;;;13.00;99.90;;;;;;5095467;28;20035;-70
2022/06/21 05:32:56;;;;;;;7.75;3.88;;;13.30;99.90;;;;;;5096644;28;20053;-70
2022/06/21 05:35:26;;;;;;;5.80;3.60;;;13.60;99.90;;;;;;5096827;28;20059;-70
2022/06/21 05:38:06;;;;;;;6.15;3.75;;;13.70;99.90;;;;;;5114730;28;20093;-70
2022/06/21 05:40:50;;;;;;;6.20;4.25;;;13.80;99.90;;;;;;5114174;28;20409;-69
2022/06/21 05:43:27;;;;;;;6.38;3.78;;;14.10;99.90;;;;;;5114611;28;20047;-69
2022/06/21 05:46:02;;;;;;;5.20;3.15;;;14.10;99.90;;;;;;5114840;28;20035;-70
2022/06/21 05:48:34;;;;;;;7.88;4.15;;;14.20;99.90;;;;;;5096443;28;20433;-70
2022/06/21 05:51:02;;;;;;;5.30;2.85;;;14.20;99.90;;;;;;5113313;28;20092;-70
2022/06/21 05:53:50;;;;;;;8.13;4.88;;;14.30;99.90;;;;;;5136025;22;20093;-69
2022/06/21 05:56:19;;;;;;;7.32;3.72;;;14.50;99.90;;;;;;5114038;28;20126;-69
2022/06/21 05:58:54;;;;;;;6.63;3.70;;;14.40;99.90;;;;;;5095513;28;20039;-69
2022/06/21 06:01:29;;;;;;;5.60;3.25;;;14.60;99.90;;;;;;5095300;28;20043;-70
2022/06/21 06:04:24;;;;;;;6.82;2.80;;;14.70;99.90;;;;;;5095416;28;20043;-69
2022/06/21 06:06:53;;;;;;;6.57;2.88;;;14.80;99.90;;;;;;5113777;28;20046;-70
2022/06/21 06:09:25;;;;;;;7.57;2.58;;;14.90;99.90;;;;;;5094484;28;20043;-70
2022/06/21 06:11:59;;;;;;;4.97;2.25;;;14.90;99.90;;;;;;5095765;28;20493;-69
2022/06/21 06:14:35;;;;;;;6.65;2.53;;;14.70;99.90;;;;;;5113765;28;20028;-69
2022/06/21 06:17:05;;;;;;;5.05;2.13;;;14.80;99.90;;;;;;5095599;28;20113;-69
2022/06/21 06:19:51;;;;;;;8.30;2.58;;;14.90;99.90;;;;;;5094668;28;20078;-71
2022/06/21 06:22:38;;;;;;;4.90;2.08;;;14.80;99.90;;;;;;5094196;28;20039;-69
2022/06/21 06:25:25;;;;;;;5.90;2.45;;;14.90;99.90;;;;;;5095390;28;20035;-69
2022/06/21 06:28:20;;;;;;;7.57;2.30;;;15.10;99.90;;;;;;5095004;28;20096;-69
2022/06/21 06:31:28;;;;;;;10.52;3.58;;;15.30;99.90;;;;;;5094504;28;20129;-69
2022/06/21 06:33:58;;;;;;;7.65;1.98;;;15.20;99.90;;;;;;5102683;28;20127;-70
2022/06/21 06:36:45;;;;;;;7.00;2.63;;;15.50;99.90;;;;;;5113819;28;20435;-69
2022/06/21 06:39:23;;;;;;;10.23;2.60;;;15.40;99.90;;;;;;5112967;28;20464;-71
2022/06/21 06:42:00;;;;;;;5.80;2.35;;;15.70;99.90;;;;;;5113398;28;20170;-70
2022/06/21 06:44:34;;;;;;;7.53;2.28;;;15.70;99.90;;;;;;5113321;28;20050;-69
2022/06/21 06:47:01;;;;;;;5.90;2.13;;;15.80;99.90;;;;;;5113659;28;20040;-70
2022/06/21 06:49:35;;;;;;;6.68;3.13;;;16.00;99.90;;;;;;5093826;28;20051;-69
2022/06/21 06:52:04;;;;;;;7.85;2.65;;;16.90;99.90;;;;;;5094537;28;20047;-69
2022/06/21 06:54:55;;;;;;;10.20;2.20;;;16.20;99.90;;;;;;5094418;28;20093;-72
2022/06/21 06:57:32;;;;;;;8.30;2.50;;;16.00;99.90;;;;;;5094664;28;20035;-71
2022/06/21 06:59:59;;;;;;;6.60;2.33;;;16.20;99.90;;;;;;5076577;28;20039;-70
2022/06/21 07:02:33;;;;;;;4.65;2.80;;;17.50;99.90;;;;;;5094312;28;20031;-70
2022/06/21 07:05:06;;;;;;;6.18;2.33;;;16.60;99.90;;;;;;5112822;28;20046;-69
2022/06/21 07:07:41;;;;;;;;;;;17.20;99.90;;;;;;5094815;28;20047;-69
2022/06/21 07:10:15;;;;;;;6.88;2.58;;;16.40;99.90;;;;;;5094163;28;19916;-71
2022/06/21 07:12:41;;;;;;;5.97;2.03;;;16.60;99.90;;;;;;5094358;28;20320;-70
2022/06/21 07:15:09;;;;;;;10.23;3.03;;;16.70;99.90;;;;;;5077534;28;20489;-69
2022/06/21 07:17:39;;;;;;;5.05;1.80;;;16.50;99.90;;;;;;5112564;28;20082;-69
2022/06/21 07:20:13;;;;;;;8.45;2.67;;;16.70;99.90;;;;;;5093544;28;20042;-72
2022/06/21 07:22:39;;;;;;;7.13;2.58;;;16.80;99.90;;;;;;5076093;28;20043;-69
2022/06/21 07:25:25;;;;;;;9.30;2.35;;;16.70;99.90;;;;;;5112550;28;20528;-70
2022/06/21 07:27:56;;;;;;;5.63;2.35;;;16.90;99.90;;;;;;5094173;28;20051;-70
2022/06/21 07:30:26;;;;;;;8.63;2.97;;;17.00;99.90;;;;;;5076413;28;20569;-70
2022/06/21 07:33:01;;;;;;;4.18;2.42;;;17.10;99.90;;;;;;5094151;28;20055;-70
2022/06/21 07:35:33;;;;;;;7.15;2.80;;;18.30;99.90;;;;;;5094146;28;20402;-70
2022/06/21 07:38:06;;;;;;;9.48;2.70;;;17.60;99.90;;;;;;5093783;28;20097;-69
2022/06/21 07:40:43;;;;;;;8.15;2.30;;;17.10;99.90;;;;;;5092966;28;20519;-69
2022/06/21 07:43:25;;;;;;;5.72;2.58;;;17.00;99.90;;;;;;5093659;28;20042;-70
2022/06/21 07:45:56;;;;;;;7.50;2.38;;;17.30;99.90;;;;;;5093879;28;20043;-70
2022/06/21 07:48:46;;;;;;;8.13;2.10;;;17.30;99.90;;;;;;5093856;28;20084;-69
2022/06/21 07:51:22;;;;;;;6.88;2.45;;;17.00;99.90;;;;;;5111305;28;20052;-70
2022/06/21 07:53:58;;;;;;;6.70;2.40;;;16.70;99.90;;;;;;5093394;28;20046;-70
2022/06/21 07:56:42;;;;;;;6.28;2.13;;;16.90;99.90;;;;;;5093626;28;20043;-69
2022/06/21 07:59:49;;;;;;;3.60;1.85;;;17.50;99.90;;;;;;5092887;28;20063;-72
2022/06/21 08:08:15;;;;;;;8.70;2.50;;;18.40;99.90;;;;;;5093441;28;20086;-71
2022/06/21 08:10:48;;;;;;;4.82;1.85;;;17.60;99.90;;;;;;5092742;28;20114;-69
2022/06/21 08:13:14;;;;;;;3.67;1.77;;;17.80;99.90;;;;;;5111810;28;20044;-69
2022/06/21 08:15:50;;;;;;;4.85;2.10;;;18.10;99.90;;;;;;5093258;28;20070;-72
2022/06/21 08:18:33;;;;;;;5.72;2.05;;;18.20;99.90;;;;;;5111694;28;20057;-70
2022/06/21 08:21:07;;;;;;;3.67;1.60;;;17.80;99.90;;;;;;5092827;28;20047;-71
2022/06/21 08:23:43;;;;;;;5.85;1.90;;;17.90;99.90;;;;;;5110548;28;20038;-70
2022/06/21 08:26:21;;;;;;;5.07;2.00;;;17.60;99.90;;;;;;5111850;28;20074;-69
2022/06/21 08:29:03;;;;;;;7.03;1.98;;;17.70;99.90;;;;;;5111918;28;20058;-69
2022/06/21 08:31:35;;;;;;;4.97;2.00;;;17.40;99.90;;;;;;5111454;28;20105;-69
2022/06/21 08:34:18;;;;;;;4.70;1.98;;;18.30;99.90;;;;;;5093332;28;20397;-69
2022/06/21 08:37:04;;;;;;;6.07;1.90;;;17.00;99.90;;;;;;5111495;28;20028;-72
2022/06/21 08:39:38;;;;;;;3.53;1.73;;;17.00;99.90;;;;;;5092507;28;20055;-70
2022/06/21 08:42:35;;;;;;;4.30;1.90;;;18.00;99.90;;;;;;5093382;28;20039;-70
2022/06/21 08:48:39;;;;;;;5.20;2.13;;;18.00;99.90;;;;;;5111365;28;20086;-69
2022/06/21 08:51:39;;;;;;;7.13;2.20;;;18.30;99.90;;;;;;5092490;28;20119;-69
2022/06/21 08:54:30;;;;;;;8.75;1.83;;;18.40;99.90;;;;;;5092920;28;20031;-69
2022/06/21 08:57:05;;;;;;;4.88;1.70;;;18.40;99.90;;;;;;5093234;28;20085;-69
2022/06/21 08:59:39;;;;;;;8.60;1.90;;;18.90;99.90;;;;;;5092320;28;20184;-70
2022/06/21 09:02:36;;;;;;;5.20;2.45;;;20.00;99.90;;;;;;5076197;28;20573;-72
2022/06/21 09:05:18;;;;;;;5.38;2.10;;;18.90;99.90;;;;;;5111603;28;20039;-69
2022/06/21 09:08:12;;;;;;;3.22;1.77;;;18.40;99.90;;;;;;5096866;28;20062;-70
2022/06/21 09:11:04;;;;;;;6.35;1.92;;;18.00;99.90;;;;;;5075646;28;20044;-70
2022/06/21 09:14:06;;;;;;;5.53;1.92;;;17.80;99.90;;;;;;5096561;28;20069;-70
2022/06/21 09:16:51;;;;;;;5.82;1.60;;;18.10;99.90;;;;;;5114660;28;20051;-70
2022/06/21 09:19:55;;;;;;;5.30;1.92;;;18.50;99.90;;;;;;5095639;28;20044;-70
2022/06/21 09:22:30;;;;;;;2.83;1.35;;;18.40;99.90;;;;;;5075335;28;20500;-69
2022/06/21 09:25:15;;;;;;;4.22;1.85;;;18.20;99.90;;;;;;5114865;28;20051;-72
2022/06/21 09:27:48;;;;;;;9.38;2.05;;;18.20;99.90;;;;;;5114560;28;20055;-69
2022/06/21 09:30:31;;;;;;;4.90;2.05;;;18.00;99.90;;;;;;5095695;28;20036;-69
2022/06/21 09:33:14;;;;;;;6.40;2.40;;;17.70;99.90;;;;;;5114288;28;20071;-71
2022/06/21 09:36:04;;;;;;;3.33;1.95;;;17.60;99.90;;;;;;5114792;28;20043;-69
2022/06/21 09:38:56;;;;;;;3.70;1.98;;;16.70;99.90;;;;;;5079297;28;20108;-70
2022/06/21 09:41:37;;;;;;;9.70;2.53;;;18.30;99.90;;;;;;5114416;28;20114;-69
2022/06/21 09:44:42;;;;;;;7.95;2.53;;;19.40;99.90;;;;;;5114466;28;20272;-69
2022/06/21 09:47:31;;;;;;;4.60;2.10;;;19.10;99.90;;;;;;5114300;28;20409;-69
2022/06/21 09:50:12;;;;;;;8.45;2.88;;;19.70;99.90;;;;;;5078341;28;20127;-69
2022/06/21 09:52:48;;;;;;;6.45;2.63;;;19.80;99.90;;;;;;5078983;28;20032;-71
2022/06/21 09:55:22;;;;;;;5.10;2.25;;;19.20;99.90;;;;;;5112880;28;20043;-70
2022/06/21 09:58:26;;;;;;;4.93;2.03;;;18.90;99.90;;;;;;5114082;28;20081;-70
2022/06/21 10:01:16;;;;;;;4.03;1.90;;;18.90;99.90;;;;;;5095022;28;20047;-70
2022/06/21 10:03:55;;;;;;;5.45;2.10;;;19.50;99.90;;;;;;5095689;28;20159;-69
2022/06/21 10:06:44;;;;;;;6.78;2.55;;;19.80;99.90;;;;;;5114155;28;20050;-70
2022/06/21 10:09:19;;;;;;;3.92;1.60;;;18.80;99.90;;;;;;5113085;28;20044;-70
2022/06/21 10:12:01;;;;;;;3.40;1.63;;;19.50;99.90;;;;;;5095532;28;20042;-72
2022/06/21 10:14:36;;;;;;;4.68;1.80;;;19.40;99.90;;;;;;5095271;28;20484;-71
2022/06/21 10:17:36;;;;;;;3.28;1.50;;;19.60;99.90;;;;;;5094421;28;20594;-70
2022/06/21 10:20:21;;;;;;;3.83;1.92;;;20.00;99.90;;;;;;5094878;28;20397;-70
2022/06/21 10:23:22;;;;;;;5.38;1.63;;;20.30;99.90;;;;;;5077405;28;20058;-69
2022/06/21 10:26:09;;;;;;;4.70;1.45;;;20.30;99.90;;;;;;5095181;28;20039;-70
2022/06/21 10:29:04;;;;;;;3.58;2.15;;;20.40;99.90;;;;;;5094844;28;20126;-70
2022/06/21 10:31:30;;;;;;;3.55;1.20;;;;;;;;;;5094942;28;20044;-69
2022/06/21 10:34:29;;;;;;;5.95;1.67;;;20.70;99.90;;;;;;5113227;28;20043;-70
2022/06/21 10:37:24;;;;;;;4.72;1.65;;;20.80;99.90;;;;;;5094683;28;20039;-70
2022/06/21 10:40:08;;;;;;;3.08;1.40;;;20.70;99.20;;;;;;5084915;28;20047;-70
2022/06/21 10:43:01;;;;;;;4.85;1.70;;;21.30;99.90;;;;;;5094942;28;20057;-70
2022/06/21 10:45:47;;;;;;;4.70;1.77;;;20.80;99.20;;;;;;5094830;28;20078;-70
2022/06/21 10:48:30;;;;;;;4.60;1.98;;;20.50;99.40;;;;;;5113082;28;20039;-71
2022/06/21 10:51:34;;;;;;;6.05;2.30;;;20.90;99.90;;;;;;5093843;28;20550;-69
2022/06/21 10:54:11;;;;;;;2.88;1.85;;;21.70;99.90;;;;;;5013591;28;20042;-70
2022/06/21 11:01:17;;;;;;;3.88;1.48;;;21.10;99.40;;;;;;5089615;28;20073;-70
2022/06/21 11:02:47;;;;;;;7.78;2.25;;;21.30;99.80;;;;;;5112453;28;20043;-73
2022/06/21 11:05:21;;;;;;;3.35;1.63;;;21.60;99.90;;;;;;5112565;28;20043;-69
2022/06/21 11:08:06;;;;;;;4.95;1.88;;;21.50;99.90;;;;;;5094290;28;20397;-70
2022/06/21 11:10:36;;;;;;;6.28;1.52;;;21.70;99.90;;;;;;5093525;28;20123;-71
2022/06/21 11:13:06;;;;;;;4.93;1.88;;;21.60;99.90;;;;;;5112589;28;20549;-70
2022/06/21 11:15:37;;;;;;;3.97;1.42;;;21.40;99.90;;;;;;5112646;28;20036;-72
2022/06/21 11:18:11;;;;;;;4.72;1.60;;;21.60;99.90;;;;;;5112445;28;20082;-70
2022/06/21 11:21:04;;;;;;;2.45;1.35;;;21.30;99.90;;;;;;5093288;28;20118;-70
2022/06/21 11:24:04;;;;;;;4.20;1.50;;;21.30;99.90;;;;;;5110570;28;20088;-69
2022/06/21 11:27:04;;;;;;;3.92;1.20;;;21.30;99.90;;;;;;5093777;28;20083;-70
2022/06/21 11:29:50;;;;;;;8.48;1.60;;;21.30;99.90;;;;;;5111222;28;20043;-70
2022/06/21 11:32:46;;;;;;;5.05;1.63;;;21.50;99.90;;;;;;5094213;28;20036;-70
2022/06/21 11:35:24;;;;;;;4.47;1.50;;;21.40;99.10;;;;;;5094190;28;20127;-70
2022/06/21 11:38:06;;;;;;;3.28;1.42;;;22.00;99.30;;;;;;5093888;28;20069;-71
2022/06/21 11:40:40;;;;;;;2.17;1.10;;;21.50;99.30;;;;;;5093173;28;20046;-71
2022/06/21 11:43:43;;;;;;;3.53;1.20;;;21.50;99.70;;;;;;5111968;28;20049;-73
2022/06/21 11:46:29;;;;;;;3.35;1.30;;;21.90;99.30;;;;;;5076112;28;20046;-69
2022/06/21 11:49:31;;;;;;;3.90;1.23;;;21.60;98.70;;;;;;5093374;28;20515;-70
2022/06/21 11:52:31;;;;;;;3.35;1.30;;;23.50;99.50;;;;;;5093802;28;20135;-70
2022/06/21 11:55:16;;;;;;;1.63;1.00;;;21.70;99.90;;;;;;5081396;22;20468;-71
2022/06/21 11:57:53;;;;;;;3.13;1.10;;;22.10;99.90;;;;;;5071950;28;20040;-71
2022/06/21 12:00:32;;;;;;;2.22;1.50;;;22.00;99.20;;;;;;5036280;28;20165;-71
2022/06/21 12:03:00;;;;;;;3.67;1.35;;;21.70;99.90;;;;;;5071656;28;20036;-71
2022/06/21 12:05:44;;;;;;;4.10;1.65;;;22.00;99.90;;;;;;5053507;28;20032;-70
2022/06/21 12:08:22;;;;;;;5.60;1.50;;;22.70;99.90;;;;;;5037238;28;20124;-70
2022/06/21 12:11:08;;;;;;;3.15;1.58;;;22.60;99.90;;;;;;5052844;28;20039;-71
2022/06/21 12:14:07;;;;;;;4.47;1.30;;;22.20;99.10;;;;;;5053924;28;20433;-71
2022/06/21 12:16:58;;;;;;;3.88;1.52;;;22.10;99.80;;;;;;5048854;28;20445;-71
2022/06/21 12:19:30;;;;;;;2.83;1.40;;;22.00;99.90;;;;;;5071077;28;20041;-71
2022/06/21 12:22:12;;;;;;;4.38;1.45;;;22.60;99.90;;;;;;5071614;28;20115;-71
2022/06/21 12:24:38;;;;;;;2.95;1.65;;;22.30;99.90;;;;;;5070654;28;20069;-72
2022/06/21 12:27:10;;;;;;;5.97;1.90;;;22.30;99.90;;;;;;5071650;28;20045;-71
2022/06/21 12:29:36;;;;;;;8.20;3.20;;;22.60;99.90;;;;;;5052640;28;20051;-71
2022/06/21 12:32:05;;;;;;;7.00;2.20;;;21.90;99.90;;;;;;5036709;28;20033;-71
2022/06/21 12:34:42;;;;;;;5.32;1.77;;;21.70;99.90;;;;;;5053605;28;20045;-71
2022/06/21 12:37:20;;;;;;;3.47;1.45;;;21.90;99.90;;;;;;5053394;28;20045;-71
2022/06/21 12:39:57;;;;;;;3.58;1.50;;;22.00;99.90;;;;;;5052578;28;20045;-71
2022/06/21 12:42:49;;;;;;;7.95;2.80;;;22.30;99.90;;;;;;5040382;28;20106;-71
2022/06/21 12:45:55;;;;;;;3.85;1.80;;;22.60;99.90;;;;;;5057121;28;20036;-71
2022/06/21 12:48:48;;;;;;;4.75;2.33;;;22.80;97.40;;;;;;5057249;28;20040;-71
2022/06/21 12:51:34;;;;;;;5.55;2.10;;;22.80;97.20;;;;;;5056681;28;20043;-70
2022/06/21 12:54:31;;;;;;;5.90;1.60;;;22.90;97.10;;;;;;5042663;28;20047;-71
2022/06/21 12:57:16;;;;;;;4.25;1.70;;;23.20;96.90;;;;;;5041783;28;20076;-70
2022/06/21 12:59:56;;;;;;;3.72;1.33;;;22.70;97.10;;;;;;5057111;28;20617;-71
2022/06/21 13:03:14;;;;;;;2.90;1.70;;;22.00;97.10;;;;;;5056895;28;20090;-71
2022/06/21 13:05:47;;;;;;;8.75;2.60;;;22.00;97.10;;;;;;5042068;28;20421;-70
2022/06/21 13:08:40;;;;;;;3.80;1.70;;;22.70;98.20;;;;;;5057435;28;20039;-71
2022/06/21 13:11:35;;;;;;;4.07;1.35;;;22.70;98.20;;;;;;5074497;28;20040;-71
2022/06/21 13:14:18;;;;;;;3.00;1.70;;;21.80;97.30;;;;;;5074577;28;20071;-70
2022/06/21 13:16:50;;;;;;;2.28;1.58;;;21.80;97.60;;;;;;5056828;28;20067;-70
2022/06/21 13:19:41;;;;;;;5.63;1.92;;;22.20;97.80;;;;;;5040649;28;20086;-71
2022/06/21 13:22:43;;;;;;;4.30;1.50;;;22.10;97.70;;;;;;5057949;28;20051;-71
2022/06/21 13:25:14;;;;;;;3.67;1.65;;;22.00;97.50;;;;;;5074903;28;20048;-70
2022/06/21 13:27:58;;;;;;;4.57;1.33;;;22.50;96.70;;;;;;5056841;28;20040;-71
2022/06/21 13:30:54;;;;;;;5.03;1.70;;;22.70;97.60;;;;;;5073563;28;20036;-71
2022/06/21 13:33:25;;;;;;;2.72;1.55;;;22.60;96.70;;;;;;5039546;28;20048;-71
2022/06/21 13:36:05;;;;;;;3.08;1.27;;;22.80;97.20;;;;;;5056214;28;20072;-71
2022/06/21 13:38:42;;;;;;;5.32;1.40;;;22.60;97.10;;;;;;5074153;28;20120;-71
2022/06/21 13:44:23;;;;;;;2.75;1.63;;;22.50;96.60;;;;;;5056159;28;20064;-71
2022/06/21 13:47:00;;;;;;;4.97;1.30;;;22.40;96.70;;;;;;5074106;28;20047;-71
2022/06/21 13:49:33;;;;;;;5.88;1.33;;;22.90;97.20;;;;;;5038422;28;20712;-71
2022/06/21 13:52:28;;;;;;;4.88;1.42;;;23.40;96.80;;;;;;5073869;28;20062;-71
2022/06/21 13:55:08;;;;;;;6.00;1.40;;;22.90;96.60;;;;;;5039000;28;20068;-71
2022/06/21 13:58:01;;;;;;;6.10;1.80;;;23.00;96.60;;;;;;5056138;28;20051;-71
2022/06/21 14:00:39;;;;;;;2.30;1.23;;;23.00;95.80;;;;;;5054988;28;20510;-71
2022/06/21 14:03:27;;;;;;;4.03;1.40;;;23.10;96.70;;;;;;5055661;28;20032;-71